Time;durP1;ratioP1;P1;durP2;ratioP2;P2;SDS_P1;SDS_P2;PMS_P1;PMS_P2;Temp;Humidity;BMP_temperature;BMP_pressure;BME280_temperature;BME280_humidity;BME280_pressure;Samples;Min_cycle;Max_cycle;Signal;HPM_P1;HPM_P2
2024/03/10 00:00:52;;;;;;;69.18;25.98;;;;;;;;;;6270081;28;20143;-78
2024/03/10 00:03:53;;;;;;;85.72;27.27;;;;;;;;;;6277700;28;20075;-80
2024/03/10 00:06:55;;;;;;;30.52;14.43;;;;;;;;;;6303336;28;20047;-80
2024/03/10 00:09:57;;;;;;;63.88;23.88;;;;;;;;;;6312786;27;20051;-81
2024/03/10 00:12:59;;;;;;;29.88;14.45;;;;;;;;;;6284794;28;20052;-79
2024/03/10 00:16:01;;;;;;;63.90;23.27;;;;;;;;;;6278955;28;20059;-78
2024/03/10 00:19:03;;;;;;;33.22;14.70;;;;;;;;;;6301595;28;20063;-80
2024/03/10 00:22:05;;;;;;;29.08;13.40;;;;;;;;;;6278191;28;20055;-79
2024/03/10 00:25:08;;;;;;;32.92;13.43;;;;;;;;;;6300336;28;20058;-78
2024/03/10 00:28:11;;;;;;;26.88;12.68;;;;;;;;;;6297377;28;20067;-79
2024/03/10 00:31:12;;;;;;;24.30;11.00;;;;;;;;;;6304728;28;20078;-79
2024/03/10 00:34:14;;;;;;;44.85;16.75;;;;;;;;;;6278249;28;20040;-78
2024/03/10 00:37:16;;;;;;;49.20;18.45;;;;;;;;;;6308647;28;20048;-78
2024/03/10 00:40:17;;;;;;;66.90;23.42;;;;;;;;;;6272707;28;20097;-78
2024/03/10 00:43:19;;;;;;;30.15;13.02;;;;;;;;;;6308398;28;20048;-79
2024/03/10 00:46:22;;;;;;;31.45;13.93;;;;;;;;;;6288284;28;20524;-78
2024/03/10 00:49:23;;;;;;;28.02;12.80;;;;;;;;;;6275703;28;20060;-80
2024/03/10 00:52:25;;;;;;;30.00;13.90;;;;;;;;;;6293704;28;20418;-78
2024/03/10 00:55:27;;;;;;;46.35;19.05;;;;;;;;;;6293883;28;20045;-78
2024/03/10 00:58:28;;;;;;;34.25;16.40;;;;;;;;;;6311441;27;20075;-79
2024/03/10 01:01:30;;;;;;;27.65;14.43;;;;;;;;;;6290588;28;20051;-77
2024/03/10 01:04:33;;;;;;;32.10;13.75;;;;;;;;;;6303592;28;20044;-80
2024/03/10 01:07:34;;;;;;;29.35;14.32;;;;;;;;;;6284198;28;20052;-78
2024/03/10 01:10:36;;;;;;;28.60;14.27;;;;;;;;;;6306411;27;20047;-80
2024/03/10 01:13:38;;;;;;;29.60;13.52;;;;;;;;;;6276143;28;20048;-79
2024/03/10 01:16:43;;;;;;;26.35;12.90;;;;;;;;;;6303867;28;20040;-80
2024/03/10 01:19:45;;;;;;;27.40;13.30;;;;;;;;;;6278611;28;20040;-78
2024/03/10 01:22:47;;;;;;;26.23;12.65;;;;;;;;;;6277547;28;20037;-80
2024/03/10 01:25:49;;;;;;;27.15;11.50;;;;;;;;;;6269411;28;20072;-80
2024/03/10 01:28:51;;;;;;;27.33;14.25;;;;;;;;;;6281688;28;20153;-80
2024/03/10 01:31:55;;;;;;;29.92;13.63;;;;;;;;;;6300962;28;20124;-76
2024/03/10 01:34:57;;;;;;;30.23;14.77;;;;;;;;;;6300821;28;20426;-80
2024/03/10 01:37:59;;;;;;;29.17;14.57;;;;;;;;;;6303920;28;20106;-81
2024/03/10 01:41:02;;;;;;;33.38;16.25;;;;;;;;;;6267726;28;20075;-80
2024/03/10 01:44:05;;;;;;;26.88;13.23;;;;;;;;;;6301887;27;20514;-79
2024/03/10 01:47:07;;;;;;;;;;;;;;;;;;6278782;28;20418;-80
2024/03/10 01:50:09;;;;;;;25.80;12.63;;;;;;;;;;6308433;28;19924;-80
2024/03/10 01:53:11;;;;;;;28.83;13.68;;;;;;;;;;6309324;27;20048;-81
2024/03/10 01:56:13;;;;;;;35.00;14.00;;;;;;;;;;6314422;27;20037;-80
2024/03/10 01:59:16;;;;;;;26.65;12.25;;;;;;;;;;6302852;28;20036;-79
2024/03/10 02:02:22;;;;;;;26.13;11.68;;;;;;;;;;6305000;28;20040;-78
2024/03/10 02:05:24;;;;;;;24.10;11.80;;;;;;;;;;6299954;27;20048;-77
2024/03/10 02:08:26;;;;;;;24.65;10.88;;;;;;;;;;6293043;28;20399;-80
2024/03/10 02:11:28;;;;;;;27.83;11.05;;;;;;;;;;6301218;28;20086;-80
2024/03/10 02:14:30;;;;;;;26.70;12.07;;;;;;;;;;6293759;27;20051;-79
2024/03/10 02:17:36;;;;;;;22.42;11.00;;;;;;;;;;6258777;28;20418;-78
2024/03/10 02:20:38;;;;;;;25.88;12.20;;;;;;;;;;6280323;28;20075;-79
2024/03/10 02:24:05;;;;;;;25.27;10.38;;;;;;;;;;6305501;28;20047;-79
2024/03/10 02:27:15;;;;;;;20.70;9.88;;;;;;;;;;6284825;28;20511;-79
2024/03/10 02:50:05;;;;;;;24.83;12.38;;;;;;;;;;6307222;28;20051;-81
2024/03/10 02:53:09;;;;;;;23.65;10.93;;;;;;;;;;6314571;28;20047;-78
2024/03/10 02:56:11;;;;;;;23.63;10.90;;;;;;;;;;6280782;28;20040;-78
2024/03/10 02:59:14;;;;;;;28.48;12.40;;;;;;;;;;6312793;28;20051;-80
2024/03/10 03:02:18;;;;;;;23.65;11.40;;;;;;;;;;6303461;28;20032;-80
2024/03/10 03:05:21;;;;;;;21.17;10.85;;;;;;;;;;6314784;28;20050;-77
2024/03/10 03:08:24;;;;;;;27.55;12.85;;;;;;;;;;6314371;28;20044;-78
2024/03/10 03:11:26;;;;;;;25.00;11.70;;;;;;;;;;6313905;28;20051;-79
2024/03/10 03:14:28;;;;;;;27.88;11.82;;;;;;;;;;6308086;28;20501;-80
2024/03/10 03:17:30;;;;;;;23.45;12.13;;;;;;;;;;6284166;28;20052;-79
2024/03/10 03:20:33;;;;;;;23.80;11.40;;;;;;;;;;6296697;28;20044;-78
2024/03/10 03:23:35;;;;;;;27.98;12.25;;;;;;;;;;6301939;28;20048;-78
2024/03/10 03:26:37;;;;;;;25.00;12.10;;;;;;;;;;6290257;28;20050;-78
2024/03/10 03:29:38;;;;;;;25.50;11.80;;;;;;;;;;6301832;28;20123;-81
2024/03/10 03:32:40;;;;;;;22.55;10.85;;;;;;;;;;6299289;28;20391;-80
2024/03/10 03:35:42;;;;;;;24.85;11.32;;;;;;;;;;6299422;28;20093;-80
2024/03/10 03:38:44;;;;;;;28.55;12.43;;;;;;;;;;6268380;28;20064;-78
2024/03/10 03:41:46;;;;;;;24.20;10.97;;;;;;;;;;6294210;28;20040;-80
2024/03/10 03:44:49;;;;;;;29.92;11.50;;;;;;;;;;6290412;28;20040;-79
2024/03/10 03:47:51;;;;;;;22.48;10.85;;;;;;;;;;6306064;28;20519;-79
2024/03/10 03:50:53;;;;;;;24.05;10.45;;;;;;;;;;6304557;28;20055;-82
2024/03/10 03:53:54;;;;;;;22.95;11.05;;;;;;;;;;6300475;28;20060;-80
2024/03/10 03:56:58;;;;;;;24.08;10.68;;;;;;;;;;6306336;28;20048;-79
2024/03/10 04:00:00;;;;;;;;;;;;;;;;;;6292470;28;20060;-77
2024/03/10 04:03:02;;;;;;;19.95;9.90;;;;;;;;;;6300007;28;19931;-78
2024/03/10 04:06:05;;;;;;;25.90;10.65;;;;;;;;;;6307183;28;20044;-81
2024/03/10 04:09:07;;;;;;;23.13;10.35;;;;;;;;;;6281396;27;20048;-78
2024/03/10 04:12:09;;;;;;;19.48;8.82;;;;;;;;;;6303682;28;20125;-79
2024/03/10 04:15:11;;;;;;;20.02;8.55;;;;;;;;;;6313491;27;20040;-81
2024/03/10 04:18:13;;;;;;;20.45;9.90;;;;;;;;;;6293484;28;20064;-77
2024/03/10 04:21:15;;;;;;;27.60;10.05;;;;;;;;;;6311403;28;20051;-80
2024/03/10 04:24:21;;;;;;;22.15;10.05;;;;;;;;;;6289590;28;20100;-78
2024/03/10 04:27:24;;;;;;;21.33;9.73;;;;;;;;;;6317656;28;20032;-76
2024/03/10 04:30:26;;;;;;;20.92;9.23;;;;;;;;;;6316184;28;20071;-77
2024/03/10 04:33:28;;;;;;;24.60;10.93;;;;;;;;;;6323538;28;20033;-77
2024/03/10 04:36:29;;;;;;;24.73;10.63;;;;;;;;;;6306871;28;20059;-77
2024/03/10 04:39:31;;;;;;;29.88;10.70;;;;;;;;;;6313204;28;20044;-78
2024/03/10 04:42:38;;;;;;;25.63;10.30;;;;;;;;;;6293761;28;20032;-78
2024/03/10 04:45:40;;;;;;;21.35;10.38;;;;;;;;;;6303183;28;20494;-80
2024/03/10 04:48:41;;;;;;;23.42;10.77;;;;;;;;;;6298964;28;20048;-81
2024/03/10 04:51:43;;;;;;;25.55;10.32;;;;;;;;;;6292623;28;20125;-81
2024/03/10 04:54:45;;;;;;;19.73;9.70;;;;;;;;;;6284713;28;20049;-81
2024/03/10 04:57:48;;;;;;;22.08;10.30;;;;;;;;;;6303497;28;20068;-80
2024/03/10 05:00:50;;;;;;;22.30;9.85;;;;;;;;;;6290994;28;20053;-80
2024/03/10 05:03:51;;;;;;;21.73;9.27;;;;;;;;;;6281313;28;20045;-79
2024/03/10 05:06:53;;;;;;;21.00;10.45;;;;;;;;;;6291031;28;20051;-80
2024/03/10 05:09:55;;;;;;;20.73;9.52;;;;;;;;;;6276348;28;20546;-79
2024/03/10 05:12:57;;;;;;;22.95;9.60;;;;;;;;;;6283652;28;20051;-80
2024/03/10 05:15:59;;;;;;;25.48;10.77;;;;;;;;;;6304031;28;20050;-81
2024/03/10 05:19:00;;;;;;;21.90;10.20;;;;;;;;;;6278041;28;20040;-80
2024/03/10 05:22:03;;;;;;;23.48;9.82;;;;;;;;;;6281343;28;20518;-79
2024/03/10 05:25:08;;;;;;;19.65;9.30;;;;;;;;;;6296518;28;20048;-78
2024/03/10 05:28:10;;;;;;;20.42;10.52;;;;;;;;;;6306319;28;20047;-81
2024/03/10 05:31:33;;;;;;;18.63;9.23;;;;;;;;;;6279934;28;20048;-79
2024/03/10 05:34:39;;;;;;;19.65;9.10;;;;;;;;;;6295504;28;20048;-80
2024/03/10 05:37:41;;;;;;;20.25;8.80;;;;;;;;;;6280949;28;20048;-82
2024/03/10 05:40:43;;;;;;;21.25;9.57;;;;;;;;;;6299887;27;20107;-80
2024/03/10 05:43:45;;;;;;;21.42;9.35;;;;;;;;;;6310878;28;20051;-79
2024/03/10 05:46:47;;;;;;;22.93;9.90;;;;;;;;;;6297799;28;20109;-80
2024/03/10 05:49:49;;;;;;;21.67;8.57;;;;;;;;;;6286021;28;20045;-79
2024/03/10 05:52:51;;;;;;;20.98;8.95;;;;;;;;;;6296440;28;20044;-81
2024/03/10 05:55:54;;;;;;;18.52;9.10;;;;;;;;;;6297327;28;20358;-81
2024/03/10 05:58:56;;;;;;;21.33;9.38;;;;;;;;;;6283403;28;20047;-80
2024/03/10 06:01:58;;;;;;;25.85;11.32;;;;;;;;;;6305027;28;20040;-83
2024/03/10 06:05:00;;;;;;;21.45;10.30;;;;;;;;;;6263444;28;20097;-82
2024/03/10 06:08:01;;;;;;;19.08;8.52;;;;;;;;;;6290538;28;20036;-82
2024/03/10 06:11:03;;;;;;;21.95;9.52;;;;;;;;;;6298540;28;20047;-83
2024/03/10 06:14:05;;;;;;;31.27;11.90;;;;;;;;;;6301930;28;20071;-83
2024/03/10 06:17:08;;;;;;;39.03;15.27;;;;;;;;;;6296400;28;20133;-83
2024/03/10 06:26:51;;;;;;;23.25;11.25;;;;;;;;;;6303851;28;20054;-80
2024/03/10 06:29:52;;;;;;;23.73;11.30;;;;;;;;;;6305114;28;20949;-82
2024/03/10 06:32:54;;;;;;;21.65;11.45;;;;;;;;;;6274713;28;20788;-82
2024/03/10 06:35:58;;;;;;;27.02;11.40;;;;;;;;;;6263917;28;20040;-81
2024/03/10 06:39:00;;;;;;;19.02;9.35;;;;;;;;;;6271502;28;20045;-81
2024/03/10 06:42:02;;;;;;;22.65;10.48;;;;;;;;;;6275565;28;20047;-81
2024/03/10 06:45:06;;;;;;;22.63;11.00;;;;;;;;;;6275405;28;20041;-80
2024/03/10 06:48:09;;;;;;;21.95;10.70;;;;;;;;;;6279206;28;20045;-83
2024/03/10 06:51:11;;;;;;;22.00;10.68;;;;;;;;;;6274057;28;20062;-82
2024/03/10 06:54:13;;;;;;;22.88;11.15;;;;;;;;;;6262254;28;20045;-83
2024/03/10 06:57:14;;;;;;;24.75;10.90;;;;;;;;;;6270179;28;20044;-81
2024/03/10 07:00:20;;;;;;;21.92;11.00;;;;;;;;;;6309171;28;20055;-82
2024/03/10 07:03:22;;;;;;;23.70;11.80;;;;;;;;;;6283378;28;20055;-80
2024/03/10 07:06:26;;;;;;;20.52;9.40;;;;;;;;;;6302746;28;20040;-81
2024/03/10 07:09:28;;;;;;;19.65;9.32;;;;;;;;;;6284607;28;20047;-82
2024/03/10 07:12:30;;;;;;;20.98;9.20;;;;;;;;;;6297337;28;20063;-83
2024/03/10 07:15:32;;;;;;;20.50;9.55;;;;;;;;;;6296863;28;20561;-82
2024/03/10 07:18:36;;;;;;;21.33;9.38;;;;;;;;;;6266097;28;20052;-83
2024/03/10 07:21:38;;;;;;;19.20;9.50;;;;;;;;;;6255705;28;20048;-83
2024/03/10 07:24:40;;;;;;;18.83;9.02;;;;;;;;;;6287209;28;20101;-83
2024/03/10 07:27:43;;;;;;;24.83;10.25;;;;;;;;;;6288986;28;20044;-83
2024/03/10 07:30:44;;;;;;;22.13;10.02;;;;;;;;;;6311026;28;20040;-82
2024/03/10 07:33:46;;;;;;;23.42;11.52;;;;;;;;;;6307840;28;20047;-82
2024/03/10 07:36:48;;;;;;;21.83;9.85;;;;;;;;;;6293335;28;20054;-84
2024/03/10 07:39:50;;;;;;;35.25;15.52;;;;;;;;;;6294849;28;20063;-81
2024/03/10 07:42:52;;;;;;;20.15;10.80;;;;;;;;;;6310020;28;20489;-80
2024/03/10 07:45:54;;;;;;;23.15;11.75;;;;;;;;;;6302626;28;20070;-81
2024/03/10 07:49:00;;;;;;;25.17;12.30;;;;;;;;;;6295377;28;20379;-84
2024/03/10 07:52:02;;;;;;;26.08;11.63;;;;;;;;;;6292441;28;20044;-83
2024/03/10 07:55:04;;;;;;;21.25;10.43;;;;;;;;;;6306528;28;20051;-85
2024/03/10 07:58:06;;;;;;;21.55;10.48;;;;;;;;;;6300533;28;20110;-83
2024/03/10 08:01:09;;;;;;;26.20;13.60;;;;;;;;;;6305623;27;20044;-83
2024/03/10 08:04:12;;;;;;;24.17;11.18;;;;;;;;;;6307342;28;20048;-82
2024/03/10 08:07:14;;;;;;;24.98;11.75;;;;;;;;;;6291890;28;20217;-83
2024/03/10 08:10:16;;;;;;;22.50;10.82;;;;;;;;;;6298894;27;20051;-83
2024/03/10 08:13:18;;;;;;;19.87;12.30;;;;;;;;;;6300019;28;20042;-83
2024/03/10 08:16:20;;;;;;;21.63;11.55;;;;;;;;;;6303020;28;20048;-83
2024/03/10 08:19:21;;;;;;;26.92;12.00;;;;;;;;;;6280317;27;20051;-84
2024/03/10 08:22:23;;;;;;;19.42;10.82;;;;;;;;;;6305785;28;20040;-82
2024/03/10 08:25:25;;;;;;;23.30;11.45;;;;;;;;;;6305638;28;20055;-82
2024/03/10 08:28:27;;;;;;;23.70;11.52;;;;;;;;;;6302271;28;20044;-84
2024/03/10 08:31:30;;;;;;;21.50;11.23;;;;;;;;;;6310823;28;20476;-83
2024/03/10 08:34:32;;;;;;;24.58;11.60;;;;;;;;;;6305453;28;20039;-81
2024/03/10 08:37:38;;;;;;;24.33;11.25;;;;;;;;;;6297008;28;20051;-80
2024/03/10 08:40:40;;;;;;;32.05;15.85;;;;;;;;;;6303434;27;20052;-83
2024/03/10 08:43:43;;;;;;;;;;;;;;;;;;6302745;28;20135;-81
2024/03/10 08:46:46;;;;;;;29.60;15.25;;;;;;;;;;6311423;28;19924;-82
2024/03/10 08:49:48;;;;;;;35.65;17.30;;;;;;;;;;6289564;28;20122;-83
2024/03/10 08:52:49;;;;;;;28.08;14.10;;;;;;;;;;6310927;28;20058;-82
2024/03/10 08:55:51;;;;;;;44.80;20.42;;;;;;;;;;6304646;27;20048;-81
2024/03/10 08:58:54;;;;;;;29.10;14.30;;;;;;;;;;6305610;27;20089;-80
2024/03/10 09:01:55;;;;;;;24.87;13.27;;;;;;;;;;6297682;28;20066;-81
2024/03/10 09:04:57;;;;;;;41.67;20.55;;;;;;;;;;6298302;28;20521;-82
2024/03/10 09:07:59;;;;;;;22.73;12.32;;;;;;;;;;6300680;28;20421;-82
2024/03/10 09:11:06;;;;;;;25.42;13.77;;;;;;;;;;6302536;28;20251;-82
2024/03/10 09:14:08;;;;;;;21.40;11.90;;;;;;;;;;6280772;28;20077;-82
2024/03/10 09:17:10;;;;;;;21.85;11.73;;;;;;;;;;6298719;28;20107;-82
2024/03/10 09:20:15;;;;;;;20.38;11.20;;;;;;;;;;6295292;28;20127;-82
2024/03/10 09:23:17;;;;;;;19.42;11.18;;;;;;;;;;6290992;28;20131;-83
2024/03/10 09:26:20;;;;;;;18.55;10.43;;;;;;;;;;6295891;28;20690;-82
2024/03/10 09:29:29;;;;;;;20.52;11.10;;;;;;;;;;6276142;28;20197;-81
2024/03/10 09:32:31;;;;;;;19.27;10.55;;;;;;;;;;6295608;28;20040;-83
2024/03/10 09:35:36;;;;;;;20.45;10.65;;;;;;;;;;6288903;28;20202;-83
2024/03/10 09:38:40;;;;;;;22.00;11.55;;;;;;;;;;6297982;27;20120;-83
2024/03/10 09:41:42;;;;;;;21.23;11.30;;;;;;;;;;6277230;27;20051;-85
2024/03/10 09:44:45;;;;;;;20.23;11.17;;;;;;;;;;6288029;27;20631;-85
2024/03/10 09:47:50;;;;;;;20.05;10.95;;;;;;;;;;6313133;27;20439;-83
2024/03/10 09:50:52;;;;;;;22.00;11.02;;;;;;;;;;6313103;27;20637;-84
2024/03/10 09:53:54;;;;;;;21.60;10.93;;;;;;;;;;6306799;27;20537;-83
2024/03/10 09:56:56;;;;;;;23.40;11.32;;;;;;;;;;6262672;28;20057;-82
2024/03/10 10:00:00;;;;;;;21.92;11.88;;;;;;;;;;6298327;28;20518;-84
2024/03/10 10:03:03;;;;;;;23.35;12.10;;;;;;;;;;6291344;28;20133;-82
2024/03/10 10:06:08;;;;;;;20.95;11.13;;;;;;;;;;6300814;28;20049;-81
2024/03/10 10:09:10;;;;;;;23.95;11.80;;;;;;;;;;6296207;28;20681;-84
2024/03/10 10:12:13;;;;;;;24.48;12.13;;;;;;;;;;6312425;28;20168;-82
2024/03/10 10:15:21;;;;;;;30.20;12.52;;;;;;;;;;6301382;28;20060;-82
2024/03/10 10:18:23;;;;;;;28.15;14.20;;;;;;;;;;6301359;28;20043;-84
2024/03/10 10:21:29;;;;;;;30.25;13.77;;;;;;;;;;6300145;28;20062;-83
2024/03/10 10:24:31;;;;;;;22.67;12.02;;;;;;;;;;6286929;28;20509;-82
2024/03/10 10:27:46;;;;;;;32.10;16.00;;;;;;;;;;6298284;28;20052;-82
2024/03/10 10:30:48;;;;;;;38.10;18.77;;;;;;;;;;6304372;28;20044;-80
2024/03/10 10:33:50;;;;;;;26.98;14.07;;;;;;;;;;6270824;28;20426;-81
2024/03/10 10:36:55;;;;;;;29.10;15.20;;;;;;;;;;6271269;28;20059;-83
2024/03/10 10:39:59;;;;;;;25.40;12.45;;;;;;;;;;6285646;28;20430;-82
2024/03/10 10:43:02;;;;;;;28.05;14.43;;;;;;;;;;6295023;28;20048;-82
2024/03/10 10:46:10;;;;;;;35.92;17.40;;;;;;;;;;6303466;28;20045;-83
2024/03/10 10:49:13;;;;;;;30.17;14.98;;;;;;;;;;6298347;28;20044;-81
2024/03/10 10:52:15;;;;;;;23.50;11.68;;;;;;;;;;6302300;28;20052;-82
2024/03/10 10:55:16;;;;;;;38.67;18.02;;;;;;;;;;6277016;28;20070;-84
2024/03/10 10:58:21;;;;;;;37.53;19.35;;;;;;;;;;6301840;28;20055;-81
2024/03/10 11:01:25;;;;;;;22.50;12.13;;;;;;;;;;6289690;28;20080;-82
2024/03/10 11:04:27;;;;;;;23.20;12.40;;;;;;;;;;6288527;28;20067;-86
2024/03/10 11:07:30;;;;;;;24.02;13.82;;;;;;;;;;6295866;28;20051;-83
2024/03/10 11:10:58;;;;;;;36.60;17.60;;;;;;;;;;6297163;28;20054;-83
2024/03/10 11:14:03;;;;;;;21.63;11.75;;;;;;;;;;6304724;28;20040;-82
2024/03/10 11:17:13;;;;;;;24.15;13.15;;;;;;;;;;6298077;28;20048;-81
2024/03/10 11:20:15;;;;;;;38.78;20.17;;;;;;;;;;6299166;28;20054;-82
2024/03/10 11:23:26;;;;;;;22.50;11.63;;;;;;;;;;6292037;28;20074;-82
2024/03/10 11:26:28;;;;;;;51.30;26.02;;;;;;;;;;6300033;28;20028;-81
2024/03/10 11:29:30;;;;;;;21.80;10.87;;;;;;;;;;6328500;28;20140;-81
2024/03/10 11:32:34;;;;;;;26.65;14.68;;;;;;;;;;6327753;28;20040;-81
2024/03/10 11:35:36;;;;;;;23.70;11.73;;;;;;;;;;6329082;28;20024;-81
2024/03/10 11:38:38;;;;;;;23.70;13.73;;;;;;;;;;6296256;28;20063;-82
2024/03/10 11:41:39;;;;;;;30.70;16.35;;;;;;;;;;6294688;28;20035;-83
2024/03/10 11:44:41;;;;;;;23.05;13.20;;;;;;;;;;6304295;27;20047;-83
2024/03/10 11:47:44;;;;;;;25.30;12.93;;;;;;;;;;6301277;27;20043;-83
2024/03/10 11:50:48;;;;;;;20.58;11.23;;;;;;;;;;6289153;27;20055;-83
2024/03/10 11:53:51;;;;;;;21.75;11.43;;;;;;;;;;6296436;28;20040;-83
2024/03/10 11:56:53;;;;;;;22.90;13.18;;;;;;;;;;6296669;28;20079;-82
2024/03/10 11:59:55;;;;;;;19.25;11.82;;;;;;;;;;6300801;28;20426;-82
2024/03/10 12:02:57;;;;;;;18.25;10.55;;;;;;;;;;6299368;28;20562;-83
2024/03/10 12:05:59;;;;;;;17.85;10.82;;;;;;;;;;6302514;28;20048;-83
2024/03/10 12:09:01;;;;;;;19.48;11.10;;;;;;;;;;6286080;27;20061;-83
2024/03/10 12:12:12;;;;;;;21.50;11.15;;;;;;;;;;6304808;28;20052;-82
2024/03/10 12:15:17;;;;;;;19.83;11.07;;;;;;;;;;6272674;28;20054;-84
2024/03/10 12:18:19;;;;;;;18.13;9.70;;;;;;;;;;6272742;28;20672;-84
2024/03/10 12:21:27;;;;;;;22.73;12.48;;;;;;;;;;6301026;28;20200;-85
2024/03/10 12:24:30;;;;;;;19.85;10.88;;;;;;;;;;6288463;28;20125;-83
2024/03/10 12:27:32;;;;;;;24.60;12.80;;;;;;;;;;6299007;28;20051;-83
2024/03/10 12:30:34;;;;;;;27.92;16.15;;;;;;;;;;6300160;28;20059;-83
2024/03/10 12:33:39;;;;;;;51.22;25.90;;;;;;;;;;6298350;28;20048;-84
2024/03/10 12:36:43;;;;;;;33.33;17.48;;;;;;;;;;6302237;28;20040;-85
2024/03/10 12:39:55;;;;;;;19.33;10.85;;;;;;;;;;6266955;28;20070;-84
2024/03/10 12:42:56;;;;;;;18.73;10.27;;;;;;;;;;6296671;28;20044;-83
2024/03/10 12:45:59;;;;;;;19.23;11.27;;;;;;;;;;6294220;28;20044;-82
2024/03/10 12:49:01;;;;;;;142.80;51.00;;;;;;;;;;6284110;28;20067;-84
2024/03/10 12:52:03;;;;;;;20.23;11.38;;;;;;;;;;6284623;28;20056;-83
2024/03/10 12:55:08;;;;;;;26.38;13.85;;;;;;;;;;6299571;27;20056;-83
2024/03/10 12:58:13;;;;;;;54.17;23.13;;;;;;;;;;6301696;28;20055;-84
2024/03/10 13:01:16;;;;;;;138.43;49.08;;;;;;;;;;6287666;28;20040;-83
2024/03/10 13:04:18;;;;;;;22.13;12.75;;;;;;;;;;6303892;28;20062;-83
2024/03/10 13:07:20;;;;;;;76.40;32.08;;;;;;;;;;6295624;28;20513;-83
2024/03/10 13:10:23;;;;;;;32.65;15.38;;;;;;;;;;6305966;28;20040;-84
2024/03/10 13:13:24;;;;;;;36.97;17.63;;;;;;;;;;6289399;28;20497;-83
2024/03/10 13:16:27;;;;;;;35.58;17.75;;;;;;;;;;6309601;28;20062;-83
2024/03/10 13:19:29;;;;;;;32.40;15.52;;;;;;;;;;6292599;28;20040;-84
2024/03/10 13:22:31;;;;;;;72.45;30.27;;;;;;;;;;6308194;27;20086;-83
2024/03/10 13:25:33;;;;;;;65.43;28.33;;;;;;;;;;6307242;28;20051;-84
2024/03/10 13:28:35;;;;;;;37.83;18.47;;;;;;;;;;6310682;27;20051;-84
2024/03/10 13:31:37;;;;;;;36.35;17.27;;;;;;;;;;6308595;28;20453;-84
2024/03/10 13:34:39;;;;;;;28.48;14.93;;;;;;;;;;6308075;28;20044;-84
2024/03/10 13:37:46;;;;;;;82.68;34.03;;;;;;;;;;6279449;28;20128;-84
2024/03/10 13:40:50;;;;;;;29.73;15.15;;;;;;;;;;6258176;28;20459;-84
2024/03/10 13:43:52;;;;;;;41.38;19.35;;;;;;;;;;6292391;28;20051;-84
2024/03/10 13:46:54;;;;;;;50.72;23.02;;;;;;;;;;6308821;27;20071;-84
2024/03/10 13:49:56;;;;;;;36.53;18.42;;;;;;;;;;6299200;28;20060;-84
2024/03/10 13:52:58;;;;;;;55.60;25.67;;;;;;;;;;6312239;28;20048;-84
2024/03/10 13:56:01;;;;;;;23.83;12.73;;;;;;;;;;6313986;28;20372;-83
2024/03/10 13:59:03;;;;;;;34.28;16.77;;;;;;;;;;6316230;28;20418;-83
2024/03/10 14:02:07;;;;;;;36.55;17.48;;;;;;;;;;6308635;28;20067;-84
2024/03/10 14:05:10;;;;;;;31.65;16.17;;;;;;;;;;6292651;28;20165;-84
2024/03/10 14:08:12;;;;;;;23.88;13.10;;;;;;;;;;6295423;28;20048;-83
2024/03/10 14:11:16;;;;;;;33.10;17.13;;;;;;;;;;6309554;28;20040;-84
2024/03/10 14:14:18;;;;;;;27.27;14.90;;;;;;;;;;6300164;28;21827;-84
2024/03/10 14:17:20;;;;;;;32.92;16.38;;;;;;;;;;6308353;28;20472;-83
2024/03/10 14:20:25;;;;;;;34.17;17.52;;;;;;;;;;6308881;28;20047;-83
2024/03/10 14:23:30;;;;;;;23.58;12.10;;;;;;;;;;6292922;28;20395;-84
2024/03/10 14:26:32;;;;;;;27.77;14.02;;;;;;;;;;6307948;28;20123;-83
2024/03/10 14:29:38;;;;;;;35.05;17.02;;;;;;;;;;6293709;28;20043;-84
2024/03/10 14:32:40;;;;;;;36.30;18.10;;;;;;;;;;6304086;28;20044;-83
2024/03/10 14:35:42;;;;;;;26.30;13.40;;;;;;;;;;6288367;28;20231;-82
2024/03/10 14:38:48;;;;;;;23.60;13.03;;;;;;;;;;6295445;28;20404;-83
2024/03/10 14:41:50;;;;;;;21.95;12.13;;;;;;;;;;6311078;27;20049;-84
2024/03/10 14:44:52;;;;;;;28.40;16.33;;;;;;;;;;6278255;28;20431;-84
2024/03/10 14:47:54;;;;;;;23.30;13.35;;;;;;;;;;6282927;28;20040;-83
2024/03/10 14:50:57;;;;;;;24.58;13.68;;;;;;;;;;6308340;28;20059;-83
2024/03/10 14:53:59;;;;;;;25.33;12.60;;;;;;;;;;6316607;27;20055;-84
2024/03/10 14:57:02;;;;;;;24.95;13.80;;;;;;;;;;6269249;28;20039;-82
2024/03/10 15:00:04;;;;;;;24.02;13.23;;;;;;;;;;6308513;28;20044;-82
2024/03/10 15:03:09;;;;;;;27.52;14.43;;;;;;;;;;6307264;28;20047;-83
2024/03/10 15:06:11;;;;;;;26.05;14.15;;;;;;;;;;6300538;28;20050;-82
2024/03/10 15:09:14;;;;;;;20.88;12.07;;;;;;;;;;6291474;28;20500;-84
2024/03/10 15:12:16;;;;;;;28.20;16.13;;;;;;;;;;6311868;28;20047;-84
2024/03/10 15:15:18;;;;;;;26.83;14.50;;;;;;;;;;6312033;28;20152;-84
2024/03/10 15:18:22;;;;;;;28.75;16.67;;;;;;;;;;6290873;28;20055;-84
2024/03/10 15:21:24;;;;;;;31.90;17.25;;;;;;;;;;6305721;28;20040;-84
2024/03/10 15:24:26;;;;;;;23.58;12.90;;;;;;;;;;6309662;28;20173;-84
2024/03/10 15:27:30;;;;;;;25.23;12.60;;;;;;;;;;6308533;28;20055;-84
2024/03/10 15:30:33;;;;;;;22.27;12.45;;;;;;;;;;6307209;28;20047;-83
2024/03/10 15:33:36;;;;;;;25.90;12.57;;;;;;;;;;6319281;28;20058;-84
2024/03/10 15:36:38;;;;;;;25.58;12.45;;;;;;;;;;6310042;28;20081;-80
2024/03/10 15:39:44;;;;;;;21.85;11.45;;;;;;;;;;6309087;28;20040;-83
2024/03/10 15:42:47;;;;;;;35.35;19.30;;;;;;;;;;6312115;27;20518;-82
2024/03/10 15:45:49;;;;;;;37.57;20.37;;;;;;;;;;6314099;28;20050;-84
2024/03/10 15:48:51;;;;;;;28.27;15.00;;;;;;;;;;6304312;28;20478;-84
2024/03/10 15:51:52;;;;;;;26.25;14.43;;;;;;;;;;6305069;28;20048;-82
2024/03/10 15:54:54;;;;;;;23.15;12.30;;;;;;;;;;6314907;28;20036;-83
2024/03/10 15:57:56;;;;;;;31.42;16.88;;;;;;;;;;6313534;28;20059;-82
2024/03/10 16:00:58;;;;;;;27.98;14.85;;;;;;;;;;6322814;27;20066;-81
2024/03/10 16:04:05;;;;;;;29.17;14.65;;;;;;;;;;6323975;28;20047;-82
2024/03/10 16:07:06;;;;;;;27.33;14.57;;;;;;;;;;6305808;28;20055;-81
2024/03/10 16:10:09;;;;;;;40.00;18.38;;;;;;;;;;6293852;28;20037;-80
2024/03/10 16:13:17;;;;;;;26.10;14.57;;;;;;;;;;6286183;28;20049;-81
2024/03/10 16:16:21;;;;;;;25.70;13.82;;;;;;;;;;6301268;28;20513;-80
2024/03/10 16:19:23;;;;;;;29.33;15.20;;;;;;;;;;6302415;27;20044;-81
2024/03/10 16:22:25;;;;;;;47.67;21.10;;;;;;;;;;6295237;28;20055;-81
2024/03/10 16:25:27;;;;;;;27.48;13.10;;;;;;;;;;6295533;28;20123;-82
2024/03/10 16:28:29;;;;;;;38.58;17.45;;;;;;;;;;6305289;28;20130;-82
2024/03/10 16:31:30;;;;;;;27.23;14.55;;;;;;;;;;6310822;28;20055;-81
2024/03/10 16:34:32;;;;;;;27.13;14.00;;;;;;;;;;6302483;28;20055;-80
2024/03/10 16:37:36;;;;;;;40.50;18.40;;;;;;;;;;6294064;28;20040;-82
2024/03/10 16:40:38;;;;;;;51.67;23.30;;;;;;;;;;6298261;28;20086;-80
2024/03/10 16:43:40;;;;;;;36.13;17.08;;;;;;;;;;6298040;28;20052;-81
2024/03/10 16:46:42;;;;;;;30.08;15.07;;;;;;;;;;6301744;28;20044;-80
2024/03/10 16:49:47;;;;;;;28.58;14.48;;;;;;;;;;6306256;28;20044;-80
2024/03/10 16:52:53;;;;;;;30.55;15.27;;;;;;;;;;6305053;28;20054;-81
2024/03/10 16:55:55;;;;;;;30.40;15.73;;;;;;;;;;6307947;28;20044;-81
2024/03/10 16:58:57;;;;;;;33.22;16.27;;;;;;;;;;6286984;28;20052;-81
2024/03/10 17:01:58;;;;;;;30.23;16.13;;;;;;;;;;6277721;28;20048;-81
2024/03/10 17:05:00;;;;;;;29.38;15.55;;;;;;;;;;6260687;28;20055;-80
2024/03/10 17:08:04;;;;;;;32.53;16.17;;;;;;;;;;6265232;28;20517;-80
2024/03/10 17:11:08;;;;;;;31.98;16.38;;;;;;;;;;6292082;27;20056;-81
2024/03/10 17:14:10;;;;;;;31.80;16.40;;;;;;;;;;6290873;28;20044;-79
2024/03/10 17:17:13;;;;;;;34.72;16.23;;;;;;;;;;6316542;27;20098;-80
2024/03/10 17:20:16;;;;;;;31.35;16.70;;;;;;;;;;6284913;28;20056;-82
2024/03/10 17:23:19;;;;;;;31.67;16.60;;;;;;;;;;6305475;28;20129;-80
2024/03/10 17:26:21;;;;;;;39.72;19.42;;;;;;;;;;6303349;27;20473;-81
2024/03/10 17:29:23;;;;;;;31.85;15.70;;;;;;;;;;6303716;28;20474;-80
2024/03/10 17:32:27;;;;;;;36.17;18.23;;;;;;;;;;6296429;28;20165;-81
2024/03/10 17:35:29;;;;;;;33.92;16.92;;;;;;;;;;6298048;28;20051;-80
2024/03/10 17:38:32;;;;;;;45.03;21.45;;;;;;;;;;6295109;28;20040;-79
2024/03/10 17:41:33;;;;;;;33.23;17.03;;;;;;;;;;6284970;28;20971;-82
2024/03/10 17:44:37;;;;;;;30.83;15.68;;;;;;;;;;6301029;28;20052;-80
2024/03/10 17:47:39;;;;;;;34.13;16.92;;;;;;;;;;6296386;28;20525;-82
2024/03/10 17:50:42;;;;;;;30.17;15.27;;;;;;;;;;6287967;28;20047;-80
2024/03/10 17:53:45;;;;;;;34.85;16.40;;;;;;;;;;6266766;28;20059;-83
2024/03/10 17:56:47;;;;;;;29.33;15.75;;;;;;;;;;6285191;28;20051;-83
2024/03/10 17:59:49;;;;;;;32.57;15.73;;;;;;;;;;6289594;28;20048;-79
2024/03/10 18:02:51;;;;;;;32.33;16.67;;;;;;;;;;6303891;28;20170;-81
2024/03/10 18:05:52;;;;;;;32.60;16.23;;;;;;;;;;6288491;28;20043;-81
2024/03/10 18:08:56;;;;;;;33.35;16.60;;;;;;;;;;6302803;28;20045;-80
2024/03/10 18:11:58;;;;;;;31.65;16.27;;;;;;;;;;6300228;28;20044;-81